Terminal Aerodrome Forecast
Issued by NWS

Home | Current Version | Previous Version | Text Only | Print | Product List | Glossary On
Versions: 1 2 3 4 5 6 7 8 9 10 11 12 13 14 15 16 17 18 19 20 21 22 23 24 25 26 27 28 29 30 31 32 33 34 35 36 37 38 39 40 41 42
000
FTUS45 KBOU 310305 AAC
TAFBJC
TAF AMD
KBJC 310305Z 3103/3124 27007KT P6SM FEW090 BKN140
     FM310700 24006KT P6SM SCT140 SCT200
     FM311300 VRB05KT P6SM SCT140 BKN200
     FM311800 08008KT P6SM SCT080 BKN150 PROB30 3120/3124 VRB30G32KT
      -TSRA BKN080CB=

USA.gov is the U.S. government's official web portal to all federal, state and local government web resources and services.